createdAt,value
2022-10-07T00:00:13.433Z,96342.64
2022-10-07T00:01:13.440Z,96336.05
2022-10-07T00:02:13.426Z,96346.56
2022-10-07T00:03:13.380Z,96341.50
2022-10-07T00:04:13.371Z,96341.22
2022-10-07T00:05:13.375Z,96338.26
2022-10-07T00:06:13.382Z,96338.05
2022-10-07T00:07:13.356Z,96336.61
2022-10-07T00:08:13.333Z,96338.14
2022-10-07T00:09:13.337Z,96339.00
2022-10-07T00:10:13.323Z,96337.62
2022-10-07T00:11:13.316Z,96337.75
2022-10-07T00:12:13.323Z,96334.16
2022-10-07T00:13:13.295Z,96341.79
2022-10-07T00:14:13.286Z,96336.38
2022-10-07T00:15:13.276Z,96338.38
2022-10-07T00:16:13.343Z,96336.09
2022-10-07T00:17:13.269Z,96335.59
2022-10-07T00:18:13.271Z,96332.28
2022-10-07T00:19:13.247Z,96337.86
2022-10-07T00:20:13.237Z,96333.48
2022-10-07T00:21:13.228Z,96334.62
2022-10-07T00:22:13.232Z,96336.84
2022-10-07T00:23:13.219Z,96334.34
2022-10-07T00:24:13.222Z,96336.44
2022-10-07T00:25:13.203Z,96335.92
2022-10-07T00:26:13.190Z,96333.83
2022-10-07T00:27:13.180Z,96329.27
2022-10-07T00:28:13.245Z,96335.12
2022-10-07T00:29:13.160Z,96329.78
2022-10-07T00:30:13.205Z,96334.62
2022-10-07T00:31:13.195Z,96328.98
2022-10-07T00:32:13.139Z,96329.95
2022-10-07T00:33:13.139Z,96331.44
2022-10-07T00:34:13.137Z,96328.58
2022-10-07T00:35:13.110Z,96331.95
2022-10-07T00:36:15.085Z,96329.78
2022-10-07T00:37:13.108Z,96332.17
2022-10-07T00:38:13.092Z,96329.27
2022-10-07T00:39:13.088Z,96332.97
2022-10-07T00:40:13.089Z,96325.28
2022-10-07T00:41:13.067Z,96328.19
2022-10-07T00:42:13.080Z,96327.84
2022-10-07T00:43:13.050Z,96325.73
2022-10-07T00:44:13.052Z,96322.03
2022-10-07T00:45:13.039Z,96323.69
2022-10-07T00:46:13.093Z,96320.83
2022-10-07T00:47:13.021Z,96322.55
2022-10-07T00:48:13.018Z,96321.86
2022-10-07T00:49:12.988Z,96318.22
2022-10-07T00:50:13.002Z,96319.24
2022-10-07T00:51:12.980Z,96315.88
2022-10-07T00:52:12.971Z,96317.48
2022-10-07T00:53:12.964Z,96318.33
2022-10-07T00:54:12.969Z,96320.38
2022-10-07T00:55:12.953Z,96320.72
2022-10-07T00:56:12.944Z,96318.78
2022-10-07T00:57:12.936Z,96323.00
2022-10-07T00:58:12.920Z,96316.95
2022-10-07T00:59:12.915Z,96313.72
2022-10-07T01:00:12.946Z,96315.66
2022-10-07T01:01:12.936Z,96310.12
2022-10-07T01:02:12.953Z,96312.92
2022-10-07T01:03:12.887Z,96309.27
2022-10-07T01:04:12.878Z,96306.66
2022-10-07T01:05:12.853Z,96304.73
2022-10-07T01:06:12.862Z,96309.33
2022-10-07T01:07:12.835Z,96307.62
2022-10-07T01:08:12.835Z,96302.95
2022-10-07T01:09:12.816Z,96307.22
2022-10-07T01:10:12.816Z,96307.00
2022-10-07T01:11:12.809Z,96304.03
2022-10-07T01:12:12.820Z,96300.30
2022-10-07T01:13:12.798Z,96304.91
2022-10-07T01:14:12.799Z,96302.32
2022-10-07T01:15:12.783Z,96303.37
2022-10-07T01:16:12.786Z,96305.52
2022-10-07T01:17:12.784Z,96302.55
2022-10-07T01:18:12.770Z,96303.58
2022-10-07T01:19:12.729Z,96298.00
2022-10-07T01:20:12.743Z,96298.91
2022-10-07T01:21:12.724Z,96297.66
2022-10-07T01:22:12.723Z,96296.45
2022-10-07T01:23:12.705Z,96293.38
2022-10-07T01:24:12.712Z,96291.45
2022-10-07T01:25:12.680Z,96289.74
2022-10-07T01:26:12.672Z,96285.12
2022-10-07T01:27:12.663Z,96282.22
2022-10-07T01:28:12.691Z,96277.73
2022-10-07T01:29:12.642Z,96277.95
2022-10-07T01:30:12.653Z,96285.08
2022-10-07T01:31:12.683Z,96276.53
2022-10-07T01:32:12.638Z,96278.24
2022-10-07T01:33:12.619Z,96277.11
2022-10-07T01:34:12.605Z,96273.86
2022-10-07T01:35:12.626Z,96271.92
2022-10-07T01:36:12.619Z,96269.70
2022-10-07T01:37:12.576Z,96261.95
2022-10-07T01:38:12.574Z,96267.36
2022-10-07T01:39:12.565Z,96271.47
2022-10-07T01:40:12.570Z,96265.09
2022-10-07T01:41:12.551Z,96261.61
2022-10-07T01:42:12.562Z,96260.41
2022-10-07T01:43:12.529Z,96263.48
2022-10-07T01:44:12.532Z,96262.12
2022-10-07T01:45:12.526Z,96258.53
2022-10-07T01:46:12.569Z,96262.24
2022-10-07T01:47:12.490Z,96256.83
2022-10-07T01:48:12.525Z,96261.39
2022-10-07T01:49:12.469Z,96257.12
2022-10-07T01:50:12.473Z,96259.68
2022-10-07T01:51:12.475Z,96253.08
2022-10-07T01:52:12.465Z,96255.58
2022-10-07T01:53:12.455Z,96256.80
2022-10-07T01:54:12.463Z,96253.53
2022-10-07T01:55:12.422Z,96254.58
2022-10-07T01:56:13.101Z,96249.38
2022-10-07T01:57:12.417Z,96245.73
2022-10-07T01:58:12.403Z,96249.43
2022-10-07T01:59:12.407Z,96246.98
2022-10-07T02:00:12.425Z,96245.19
2022-10-07T02:01:12.390Z,96247.87
2022-10-07T02:02:12.365Z,96243.80
2022-10-07T02:03:12.355Z,96248.21
2022-10-07T02:04:12.366Z,96244.25
2022-10-07T02:05:12.337Z,96245.45
2022-10-07T02:06:12.369Z,96244.79
2022-10-07T02:07:12.333Z,96249.46
2022-10-07T02:08:12.317Z,96249.58
2022-10-07T02:09:12.297Z,96246.89
2022-10-07T02:10:12.298Z,96247.55
2022-10-07T02:11:12.278Z,96250.23
2022-10-07T02:12:12.311Z,96247.21
2022-10-07T02:13:12.269Z,96239.92
2022-10-07T02:14:12.276Z,96246.92
2022-10-07T02:15:12.251Z,96244.13
2022-10-07T02:16:12.359Z,96241.34
2022-10-07T02:17:12.244Z,96242.54
2022-10-07T02:18:12.263Z,96243.22
2022-10-07T02:19:12.210Z,96246.58
2022-10-07T02:20:12.224Z,96244.98
2022-10-07T02:21:12.191Z,96242.98
2022-10-07T02:22:12.204Z,96242.65
2022-10-07T02:23:12.173Z,96235.21
2022-10-07T02:24:12.197Z,96233.09
2022-10-07T02:25:12.167Z,96233.81
2022-10-07T02:26:12.167Z,96228.63
2022-10-07T02:27:12.149Z,96228.86
2022-10-07T02:28:12.275Z,96230.39
2022-10-07T02:29:12.124Z,96227.26
2022-10-07T02:30:12.139Z,96224.92
2022-10-07T02:31:12.138Z,96222.25
2022-10-07T02:32:12.098Z,96220.83
2022-10-07T02:33:12.102Z,96219.52
2022-10-07T02:34:16.263Z,96223.78
2022-10-07T02:35:12.069Z,96217.41
2022-10-07T02:36:12.077Z,96217.53
2022-10-07T02:37:12.049Z,96219.92
2022-10-07T02:38:12.061Z,96218.27
2022-10-07T02:39:12.037Z,96216.16
2022-10-07T02:40:12.730Z,96215.93
2022-10-07T02:41:12.031Z,96217.35
2022-10-07T02:42:12.045Z,96216.38
2022-10-07T02:43:12.001Z,96219.69
2022-10-07T02:44:12.006Z,96212.62
2022-10-07T02:45:11.996Z,96218.09
2022-10-07T02:46:12.062Z,96215.70
2022-10-07T02:47:11.979Z,96213.42
2022-10-07T02:48:11.975Z,96212.69
2022-10-07T02:49:11.955Z,96213.43
2022-10-07T02:50:11.956Z,96216.61
2022-10-07T02:51:11.936Z,96211.72
2022-10-07T02:52:11.922Z,96214.45
2022-10-07T02:53:11.925Z,96211.77
2022-10-07T02:54:11.937Z,96210.17
2022-10-07T02:55:11.907Z,96212.05
2022-10-07T02:56:11.898Z,96206.47
2022-10-07T02:57:11.882Z,96211.71
2022-10-07T02:58:11.877Z,96207.55
2022-10-07T02:59:11.855Z,96210.52
2022-10-07T03:00:11.897Z,96213.02
2022-10-07T03:01:11.864Z,96209.94
2022-10-07T03:02:11.850Z,96208.58
2022-10-07T03:03:11.900Z,96211.20
2022-10-07T03:04:11.831Z,96212.62
2022-10-07T03:05:11.821Z,96207.55
2022-10-07T03:06:11.821Z,96211.28
2022-10-07T03:07:11.802Z,96209.23
2022-10-07T03:08:11.803Z,96204.56
2022-10-07T03:09:11.769Z,96208.77
2022-10-07T03:10:11.783Z,96205.59
2022-10-07T03:11:11.749Z,96210.45
2022-10-07T03:12:11.790Z,96208.75
2022-10-07T03:13:11.738Z,96207.06
2022-10-07T03:14:11.744Z,96209.52
2022-10-07T03:15:11.721Z,96208.03
2022-10-07T03:16:11.774Z,96200.69
2022-10-07T03:17:11.702Z,96202.34
2022-10-07T03:18:11.734Z,96203.42
2022-10-07T03:19:11.682Z,96202.34
2022-10-07T03:20:11.699Z,96202.23
2022-10-07T03:21:11.676Z,96201.58
2022-10-07T03:22:11.676Z,96198.70
2022-10-07T03:23:11.644Z,96197.79
2022-10-07T03:24:11.675Z,96196.19
2022-10-07T03:25:11.625Z,96202.06
2022-10-07T03:26:11.625Z,96205.98
2022-10-07T03:27:11.614Z,96202.06
2022-10-07T03:28:11.663Z,96203.31
2022-10-07T03:29:11.611Z,96203.83
2022-10-07T03:30:11.610Z,96203.65
2022-10-07T03:31:11.660Z,96198.87
2022-10-07T03:32:11.588Z,96197.11
2022-10-07T03:33:11.560Z,96197.22
2022-10-07T03:34:11.571Z,96200.01
2022-10-07T03:35:11.543Z,96202.23
2022-10-07T03:36:11.562Z,96198.58
2022-10-07T03:37:11.519Z,96205.41
2022-10-07T03:38:11.519Z,96200.58
2022-10-07T03:39:11.512Z,96201.14
2022-10-07T03:40:11.513Z,96200.12
2022-10-07T03:41:11.498Z,96201.54
2022-10-07T03:42:11.494Z,96200.12
2022-10-07T03:43:11.475Z,96201.77
2022-10-07T03:44:11.475Z,96201.48
2022-10-07T03:45:11.459Z,96195.73
2022-10-07T03:46:11.479Z,96201.94
2022-10-07T03:47:11.482Z,96196.59
2022-10-07T03:48:11.444Z,96200.23
2022-10-07T03:49:11.429Z,96197.67
2022-10-07T03:50:11.428Z,96196.41
2022-10-07T03:51:11.394Z,96197.72
2022-10-07T03:52:11.394Z,96200.52
2022-10-07T03:53:11.375Z,96196.24
2022-10-07T03:54:11.395Z,96196.38
2022-10-07T03:55:11.366Z,96200.02
2022-10-07T03:56:11.363Z,96195.41
2022-10-07T03:57:11.354Z,96196.42
2022-10-07T03:58:11.339Z,96201.86
2022-10-07T03:59:11.338Z,96200.70
2022-10-07T04:00:11.361Z,96199.30
2022-10-07T04:01:11.308Z,96201.86
2022-10-07T04:02:11.329Z,96195.88
2022-10-07T04:03:11.366Z,96197.41
2022-10-07T04:04:11.302Z,96197.47
2022-10-07T04:05:11.282Z,96198.52
2022-10-07T04:06:11.278Z,96198.30
2022-10-07T04:07:11.262Z,96197.78
2022-10-07T04:08:11.263Z,96192.91
2022-10-07T04:09:11.243Z,96194.08
2022-10-07T04:10:11.244Z,96194.11
2022-10-07T04:11:11.224Z,96193.94
2022-10-07T04:12:11.231Z,96190.09
2022-10-07T04:13:11.204Z,96193.05
2022-10-07T04:14:11.205Z,96189.69
2022-10-07T04:15:11.196Z,96192.77
2022-10-07T04:16:11.235Z,96188.50
2022-10-07T04:17:11.163Z,96189.69
2022-10-07T04:18:11.313Z,96194.47
2022-10-07T04:19:11.153Z,96189.14
2022-10-07T04:20:11.158Z,96192.47
2022-10-07T04:21:11.134Z,96188.91
2022-10-07T04:22:11.124Z,96187.60
2022-10-07T04:23:11.130Z,96189.14
2022-10-07T04:24:11.123Z,96189.59
2022-10-07T04:25:11.123Z,96190.45
2022-10-07T04:26:11.099Z,96187.15
2022-10-07T04:27:23.459Z,96185.67
2022-10-07T04:28:11.102Z,96184.70
2022-10-07T04:29:11.080Z,96184.19
2022-10-07T04:30:11.092Z,96184.12
2022-10-07T04:31:11.075Z,96182.64
2022-10-07T04:32:11.058Z,96174.56
2022-10-07T04:33:11.029Z,96172.73
2022-10-07T04:34:11.019Z,96179.17
2022-10-07T04:35:11.018Z,96179.46
2022-10-07T04:36:11.036Z,96180.03
2022-10-07T04:37:11.015Z,96177.53
2022-10-07T04:38:10.982Z,96175.98
2022-10-07T04:39:10.993Z,96177.70
2022-10-07T04:40:10.984Z,96172.73
2022-10-07T04:41:10.976Z,96172.80
2022-10-07T04:42:10.962Z,96169.72
2022-10-07T04:43:10.950Z,96169.50
2022-10-07T04:44:10.932Z,96170.18
2022-10-07T04:45:10.932Z,96167.78
2022-10-07T04:46:10.933Z,96170.17
2022-10-07T04:47:11.013Z,96163.52
2022-10-07T04:48:10.915Z,96165.40
2022-10-07T04:49:10.893Z,96164.72
2022-10-07T04:50:10.897Z,96165.17
2022-10-07T04:51:10.903Z,96160.10
2022-10-07T04:52:10.864Z,96163.75
2022-10-07T04:53:10.869Z,96164.03
2022-10-07T04:54:10.869Z,96168.18
2022-10-07T04:55:10.853Z,96168.98
2022-10-07T04:56:10.826Z,96172.82
2022-10-07T04:57:10.816Z,96169.47
2022-10-07T04:58:10.821Z,96170.26
2022-10-07T04:59:10.818Z,96169.45
2022-10-07T05:00:10.798Z,96171.16
2022-10-07T05:01:10.919Z,96171.56
2022-10-07T05:02:10.825Z,96167.12
2022-10-07T05:03:10.783Z,96168.94
2022-10-07T05:04:10.757Z,96173.50
2022-10-07T05:05:10.755Z,96166.10
2022-10-07T05:06:10.752Z,96167.01
2022-10-07T05:07:10.737Z,96164.39
2022-10-07T05:08:10.711Z,96165.24
2022-10-07T05:09:10.711Z,96167.45
2022-10-07T05:10:10.715Z,96168.77
2022-10-07T05:11:10.691Z,96166.44
2022-10-07T05:12:10.706Z,96170.42
2022-10-07T05:13:10.673Z,96167.23
2022-10-07T05:14:10.676Z,96168.94
2022-10-07T05:15:10.653Z,96168.89
2022-10-07T05:16:10.708Z,96168.71
2022-10-07T05:17:10.635Z,96172.87
2022-10-07T05:18:10.647Z,96170.94
2022-10-07T05:19:10.641Z,96171.05
2022-10-07T05:20:10.613Z,96172.30
2022-10-07T05:21:10.628Z,96169.45
2022-10-07T05:22:10.600Z,96171.44
2022-10-07T05:23:10.585Z,96167.41
2022-10-07T05:24:10.609Z,96168.94
2022-10-07T05:25:10.567Z,96172.88
2022-10-07T05:26:10.576Z,96174.12
2022-10-07T05:27:10.560Z,96169.41
2022-10-07T05:28:10.585Z,96162.97
2022-10-07T05:29:10.527Z,96162.91
2022-10-07T05:30:10.541Z,96161.72
2022-10-07T05:31:10.586Z,96164.56
2022-10-07T05:32:10.550Z,96165.42
2022-10-07T05:33:10.504Z,96158.87
2022-10-07T05:34:10.479Z,96164.67
2022-10-07T05:35:10.495Z,96168.77
2022-10-07T05:36:10.479Z,96164.39
2022-10-07T05:37:10.460Z,96165.42
2022-10-07T05:38:10.441Z,96164.79
2022-10-07T05:39:10.458Z,96165.64
2022-10-07T05:40:10.435Z,96168.20
2022-10-07T05:41:10.435Z,96164.95
2022-10-07T05:42:10.413Z,96165.53
2022-10-07T05:43:10.402Z,96164.22
2022-10-07T05:44:10.407Z,96164.28
2022-10-07T05:45:10.397Z,96161.95
2022-10-07T05:46:10.453Z,96159.16
2022-10-07T05:47:10.364Z,96154.72
2022-10-07T05:48:10.388Z,96153.23
2022-10-07T05:49:10.354Z,96157.28
2022-10-07T05:50:10.348Z,96155.97
2022-10-07T05:51:10.359Z,96154.43
2022-10-07T05:52:10.325Z,96153.98
2022-10-07T05:53:10.329Z,96157.62
2022-10-07T05:54:10.341Z,96158.81
2022-10-07T05:55:10.301Z,96157.62
2022-10-07T05:56:10.287Z,96150.28
2022-10-07T05:57:10.287Z,96156.48
2022-10-07T05:58:10.268Z,96156.31
2022-10-07T05:59:10.270Z,96157.62
2022-10-07T06:00:10.268Z,96159.96
2022-10-07T06:01:14.070Z,96154.21
2022-10-07T06:02:10.331Z,96157.39
2022-10-07T06:03:10.369Z,96155.12
2022-10-07T06:04:10.220Z,96154.48
2022-10-07T06:05:10.209Z,96151.59
2022-10-07T06:06:10.218Z,96160.30
2022-10-07T06:07:10.190Z,96152.67
2022-10-07T06:08:10.181Z,96154.55
2022-10-07T06:09:10.196Z,96149.89
2022-10-07T06:10:10.181Z,96155.52
2022-10-07T06:11:10.162Z,96155.04
2022-10-07T06:12:10.186Z,96155.81
2022-10-07T06:13:10.158Z,96154.30
2022-10-07T06:14:10.131Z,96158.45
2022-10-07T06:15:10.125Z,96155.72
2022-10-07T06:16:10.186Z,96162.55
2022-10-07T06:17:10.103Z,96165.05
2022-10-07T06:18:10.118Z,96164.05
2022-10-07T06:19:10.098Z,96165.91
2022-10-07T06:20:10.098Z,96165.74
2022-10-07T06:21:10.086Z,96164.89
2022-10-07T06:22:10.055Z,96162.89
2022-10-07T06:23:10.047Z,96166.08
2022-10-07T06:24:10.060Z,96163.52
2022-10-07T06:25:10.041Z,96166.03
2022-10-07T06:26:10.017Z,96167.34
2022-10-07T06:27:10.029Z,96160.79
2022-10-07T06:28:10.023Z,96159.83
2022-10-07T06:29:10.009Z,96159.25
2022-10-07T06:30:10.002Z,96162.27
2022-10-07T06:31:10.082Z,96166.19
2022-10-07T06:32:09.980Z,96164.66
2022-10-07T06:33:09.974Z,96166.20
2022-10-07T06:34:09.964Z,96166.09
2022-10-07T06:35:09.942Z,96167.17
2022-10-07T06:36:09.950Z,96167.97
2022-10-07T06:37:09.934Z,96168.19
2022-10-07T06:38:09.925Z,96166.20
2022-10-07T06:39:09.901Z,96161.66
2022-10-07T06:40:09.907Z,96164.70
2022-10-07T06:41:09.895Z,96162.88
2022-10-07T06:42:09.894Z,96168.62
2022-10-07T06:43:09.872Z,96163.50
2022-10-07T06:44:09.870Z,96164.47
2022-10-07T06:45:09.869Z,96170.84
2022-10-07T06:46:09.967Z,96167.49
2022-10-07T06:47:11.980Z,96167.83
2022-10-07T06:48:09.825Z,96166.24
2022-10-07T06:49:09.829Z,96167.61
2022-10-07T06:50:09.819Z,96169.15
2022-10-07T06:51:09.809Z,96170.38
2022-10-07T06:52:09.803Z,96168.95
2022-10-07T06:53:09.778Z,96162.63
2022-10-07T06:54:09.800Z,96162.48
2022-10-07T06:55:09.758Z,96161.07
2022-10-07T06:56:09.747Z,96163.20
2022-10-07T06:57:26.710Z,96166.62
2022-10-07T06:58:11.782Z,96163.38
2022-10-07T06:59:09.728Z,96164.28
2022-10-07T07:00:09.734Z,96164.17
2022-10-07T07:01:09.785Z,96171.63
2022-10-07T07:02:09.745Z,96166.91
2022-10-07T07:03:09.691Z,96165.83
2022-10-07T07:04:09.679Z,96169.47
2022-10-07T07:05:09.672Z,96165.83
2022-10-07T07:06:09.681Z,96167.05
2022-10-07T07:07:09.664Z,96170.36
2022-10-07T07:08:09.641Z,96175.99
2022-10-07T07:09:09.632Z,96170.98
2022-10-07T07:10:09.641Z,96169.05
2022-10-07T07:11:09.637Z,96168.25
2022-10-07T07:12:09.614Z,96171.22
2022-10-07T07:13:09.705Z,96165.80
2022-10-07T07:14:09.590Z,96166.89
2022-10-07T07:15:09.584Z,96172.30
2022-10-07T07:16:09.583Z,96167.45
2022-10-07T07:17:09.741Z,96168.83
2022-10-07T07:18:09.555Z,96170.17
2022-10-07T07:19:09.569Z,96170.34
2022-10-07T07:20:09.536Z,96172.84
2022-10-07T07:21:09.529Z,96169.09
2022-10-07T07:22:09.536Z,96173.02
2022-10-07T07:23:09.531Z,96170.57
2022-10-07T07:24:09.521Z,96170.41
2022-10-07T07:25:09.509Z,96170.29
2022-10-07T07:26:09.492Z,96171.00
2022-10-07T07:27:09.492Z,96173.05
2022-10-07T07:28:09.523Z,96175.10
2022-10-07T07:29:09.472Z,96173.17
2022-10-07T07:30:09.483Z,96176.08
2022-10-07T07:31:09.569Z,96176.90
2022-10-07T07:32:09.433Z,96176.48
2022-10-07T07:33:09.449Z,96176.25
2022-10-07T07:34:09.411Z,96178.08
2022-10-07T07:35:09.409Z,96172.73
2022-10-07T07:36:09.402Z,96174.16
2022-10-07T07:37:09.391Z,96178.94
2022-10-07T07:38:09.385Z,96177.45
2022-10-07T07:39:09.385Z,96172.59
2022-10-07T07:40:09.352Z,96173.67
2022-10-07T07:41:09.351Z,96176.30
2022-10-07T07:42:09.357Z,96176.18
2022-10-07T07:43:09.347Z,96173.10
2022-10-07T07:44:09.322Z,96179.02
2022-10-07T07:45:09.314Z,96174.98
2022-10-07T07:46:09.353Z,96171.39
2022-10-07T07:47:09.309Z,96178.58
2022-10-07T07:48:09.305Z,96177.61
2022-10-07T07:49:09.298Z,96181.59
2022-10-07T07:50:09.267Z,96177.06
2022-10-07T07:51:09.256Z,96170.52
2022-10-07T07:52:09.261Z,96170.58
2022-10-07T07:53:09.248Z,96174.91
2022-10-07T07:54:09.247Z,96176.67
2022-10-07T07:55:09.226Z,96183.25
2022-10-07T07:56:09.221Z,96177.61
2022-10-07T07:57:09.225Z,96179.03
2022-10-07T07:58:11.689Z,96177.73
2022-10-07T07:59:09.189Z,96171.35
2022-10-07T08:00:09.201Z,96169.42
2022-10-07T08:01:09.230Z,96169.36
2022-10-07T08:02:09.229Z,96168.99
2022-10-07T08:03:09.152Z,96180.21
2022-10-07T08:04:09.152Z,96174.45
2022-10-07T08:05:09.149Z,96168.14
2022-10-07T08:06:09.142Z,96168.02
2022-10-07T08:07:09.112Z,96169.51
2022-10-07T08:08:09.119Z,96171.44
2022-10-07T08:09:09.093Z,96169.22
2022-10-07T08:10:09.097Z,96169.08
2022-10-07T08:11:09.084Z,96164.78
2022-10-07T08:12:09.096Z,96168.85
2022-10-07T08:13:09.077Z,96163.67
2022-10-07T08:14:09.044Z,96166.52
2022-10-07T08:15:09.045Z,96162.53
2022-10-07T08:16:09.099Z,96165.38
2022-10-07T08:17:09.026Z,96161.64
2022-10-07T08:18:09.027Z,96164.36
2022-10-07T08:19:09.020Z,96165.03
2022-10-07T08:20:09.007Z,96166.75
2022-10-07T08:21:09.019Z,96163.27
2022-10-07T08:22:08.977Z,96161.34
2022-10-07T08:23:08.981Z,96157.60
2022-10-07T08:24:08.982Z,96162.50
2022-10-07T08:25:08.970Z,96162.50
2022-10-07T08:26:08.938Z,96159.20
2022-10-07T08:27:08.955Z,96158.00
2022-10-07T08:28:08.992Z,96158.58
2022-10-07T08:29:08.924Z,96158.20
2022-10-07T08:30:08.933Z,96154.78
2022-10-07T08:31:08.995Z,96156.20
2022-10-07T08:32:08.904Z,96152.16
2022-10-07T08:33:08.896Z,96152.12
2022-10-07T08:34:08.882Z,96151.34
2022-10-07T08:35:08.861Z,96152.36
2022-10-07T08:36:08.863Z,96150.94
2022-10-07T08:37:08.842Z,96150.14
2022-10-07T08:38:12.472Z,96151.68
2022-10-07T08:39:08.917Z,96150.48
2022-10-07T08:40:08.837Z,96152.30
2022-10-07T08:41:08.803Z,96148.43
2022-10-07T08:42:08.984Z,96158.91
2022-10-07T08:43:08.795Z,96153.67
2022-10-07T08:44:12.126Z,96159.00
2022-10-07T08:45:08.775Z,96153.98
2022-10-07T08:46:08.791Z,96154.38
2022-10-07T08:47:08.757Z,96155.58
2022-10-07T08:48:08.770Z,96151.22
2022-10-07T08:49:08.737Z,96148.48
2022-10-07T08:50:08.740Z,96150.94
2022-10-07T08:51:08.730Z,96145.52
2022-10-07T08:52:08.719Z,96146.59
2022-10-07T08:53:08.701Z,96145.59
2022-10-07T08:54:08.722Z,96147.37
2022-10-07T08:55:08.679Z,96143.09
2022-10-07T08:56:08.702Z,96147.28
2022-10-07T08:57:08.660Z,96131.30
2022-10-07T08:58:08.673Z,96143.91
2022-10-07T08:59:08.655Z,96143.00
2022-10-07T09:00:08.674Z,96134.34
2022-10-07T09:01:08.673Z,96137.47
2022-10-07T09:02:08.635Z,96135.39
2022-10-07T09:04:34.557Z,96136.05
2022-10-07T09:05:34.568Z,96138.78
2022-10-07T09:06:34.538Z,96136.84
2022-10-07T09:07:34.541Z,96138.12
2022-10-07T09:08:34.520Z,96142.62
2022-10-07T09:09:34.510Z,96138.30
2022-10-07T09:10:34.510Z,96135.73
2022-10-07T09:11:34.514Z,96133.56
2022-10-07T09:12:34.503Z,96138.75
2022-10-07T09:13:34.471Z,96134.02
2022-10-07T09:14:34.478Z,96133.05
2022-10-07T09:15:34.515Z,96130.84
2022-10-07T09:16:34.465Z,96126.75
2022-10-07T09:17:35.369Z,96127.94
2022-10-07T09:18:34.433Z,96124.52
2022-10-07T09:19:34.424Z,96130.22
2022-10-07T09:20:34.414Z,96122.15
2022-10-07T09:21:34.402Z,96130.53
2022-10-07T09:22:34.402Z,96129.21
2022-10-07T09:23:34.424Z,96124.42
2022-10-07T09:24:34.434Z,96121.23
2022-10-07T09:25:34.379Z,96117.84
2022-10-07T09:26:34.369Z,96120.11
2022-10-07T09:27:34.360Z,96119.59
2022-10-07T09:28:34.381Z,96118.34
2022-10-07T09:29:34.347Z,96115.62
2022-10-07T09:30:34.326Z,96119.61
2022-10-07T09:31:34.348Z,96118.41
2022-10-07T09:32:34.308Z,96116.76
2022-10-07T09:33:34.297Z,96118.36
2022-10-07T09:34:34.310Z,96116.55
2022-10-07T09:35:34.331Z,96109.42
2022-10-07T09:36:34.279Z,96111.98
2022-10-07T09:37:34.270Z,96112.80
2022-10-07T09:38:34.271Z,96115.59
2022-10-07T09:39:34.239Z,96114.85
2022-10-07T09:40:34.230Z,96111.25
2022-10-07T09:41:34.231Z,96113.05
2022-10-07T09:42:34.225Z,96112.05
2022-10-07T09:43:34.216Z,96109.77
2022-10-07T09:44:34.225Z,96105.48
2022-10-07T09:45:34.197Z,96102.80
2022-10-07T09:46:34.253Z,96108.41
2022-10-07T09:47:34.196Z,96101.62
2022-10-07T09:48:34.175Z,96101.39
2022-10-07T09:49:34.143Z,96103.61
2022-10-07T09:50:34.144Z,96100.78
2022-10-07T09:51:34.124Z,96097.02
2022-10-07T09:52:34.138Z,96093.48
2022-10-07T09:53:34.130Z,96092.84
2022-10-07T09:54:34.119Z,96093.75
2022-10-07T09:55:34.109Z,96092.23
2022-10-07T09:56:34.099Z,96090.98
2022-10-07T09:57:34.089Z,96089.84
2022-10-07T09:58:34.077Z,96093.82
2022-10-07T09:59:34.078Z,96089.26
2022-10-07T10:00:34.070Z,96095.38
2022-10-07T10:01:34.051Z,96093.89
2022-10-07T10:02:34.198Z,96092.36
2022-10-07T10:03:34.099Z,96087.61
2022-10-07T10:04:34.033Z,96088.23
2022-10-07T10:05:34.034Z,96089.68
2022-10-07T10:06:34.014Z,96090.08
2022-10-07T10:07:34.005Z,96087.62
2022-10-07T10:08:34.029Z,96084.88
2022-10-07T10:09:33.973Z,96087.12
2022-10-07T10:10:33.975Z,96083.23
2022-10-07T10:11:33.975Z,96083.17
2022-10-07T10:12:34.882Z,96082.15
2022-10-07T10:13:33.935Z,96084.10
2022-10-07T10:14:33.933Z,96083.08
2022-10-07T10:15:33.950Z,96083.19
2022-10-07T10:16:33.935Z,96080.05
2022-10-07T10:17:33.924Z,96082.09
2022-10-07T10:18:33.910Z,96075.64
2022-10-07T10:19:37.185Z,96084.28
2022-10-07T10:20:33.885Z,96084.79
2022-10-07T10:21:33.866Z,96084.91
2022-10-07T10:22:33.856Z,96084.28
2022-10-07T10:23:33.857Z,96082.51
2022-10-07T10:24:33.859Z,96082.44
2022-10-07T10:25:33.826Z,96078.90
2022-10-07T10:26:34.404Z,96081.94
2022-10-07T10:27:33.807Z,96079.37
2022-10-07T10:28:33.853Z,96078.27
2022-10-07T10:29:33.810Z,96076.69
2022-10-07T10:30:33.803Z,96073.38
2022-10-07T10:31:33.837Z,96071.33
2022-10-07T10:32:33.769Z,96072.05
2022-10-07T10:33:33.765Z,96068.86
2022-10-07T10:34:33.772Z,96067.88
2022-10-07T10:35:33.751Z,96066.80
2022-10-07T10:36:33.731Z,96070.30
2022-10-07T10:37:33.722Z,96073.72
2022-10-07T10:38:33.711Z,96066.00
2022-10-07T10:39:33.715Z,96071.25
2022-10-07T10:40:33.706Z,96069.09
2022-10-07T10:41:33.706Z,96062.18
2022-10-07T10:42:33.686Z,96062.11
2022-10-07T10:43:33.840Z,96061.05
2022-10-07T10:44:33.682Z,96058.36
2022-10-07T10:45:33.667Z,96059.66
2022-10-07T10:46:33.696Z,96063.22
2022-10-07T10:47:33.638Z,96058.12
2022-10-07T10:48:33.630Z,96057.16
2022-10-07T10:49:33.634Z,96060.79
2022-10-07T10:50:33.605Z,96054.47
2022-10-07T10:51:33.595Z,96052.17
2022-10-07T10:52:33.596Z,96050.69
2022-10-07T10:53:33.611Z,96051.08
2022-10-07T10:54:33.581Z,96048.12
2022-10-07T10:55:33.571Z,96050.34
2022-10-07T10:56:33.572Z,96050.56
2022-10-07T10:57:33.538Z,96047.70
2022-10-07T10:58:33.539Z,96050.05
2022-10-07T10:59:33.542Z,96047.02
2022-10-07T11:00:33.598Z,96045.03
2022-10-07T11:01:33.637Z,96040.11
2022-10-07T11:02:33.582Z,96041.38
2022-10-07T11:03:33.514Z,96039.20
2022-10-07T11:04:33.494Z,96034.02
2022-10-07T11:05:33.481Z,96036.30
2022-10-07T11:06:33.477Z,96035.66
2022-10-07T11:07:33.476Z,96041.73
2022-10-07T11:08:38.102Z,96033.94
2022-10-07T11:09:33.432Z,96037.19
2022-10-07T11:10:33.433Z,96031.45
2022-10-07T11:11:33.448Z,96030.52
2022-10-07T11:12:33.416Z,96027.09
2022-10-07T11:13:33.407Z,96028.92
2022-10-07T11:14:33.406Z,96026.40
2022-10-07T11:15:33.390Z,96027.65
2022-10-07T11:16:33.390Z,96023.93
2022-10-07T11:17:33.397Z,96021.53
2022-10-07T11:18:33.371Z,96019.98
2022-10-07T11:19:33.360Z,96017.69
2022-10-07T11:20:33.347Z,96017.67
2022-10-07T11:21:33.328Z,96019.34
2022-10-07T11:22:33.341Z,96012.38
2022-10-07T11:23:33.342Z,96012.88
2022-10-07T11:24:33.322Z,96018.41
2022-10-07T11:25:33.308Z,96009.66
2022-10-07T11:26:34.898Z,96008.36
2022-10-07T11:27:33.293Z,96014.34
2022-10-07T11:28:33.379Z,96007.07
2022-10-07T11:29:33.271Z,96007.25
2022-10-07T11:30:33.251Z,96003.91
2022-10-07T11:31:33.264Z,96004.64
2022-10-07T11:32:33.243Z,96007.16
2022-10-07T11:33:33.222Z,96003.20
2022-10-07T11:34:33.236Z,96004.52
2022-10-07T11:35:33.212Z,95997.42
2022-10-07T11:36:33.216Z,96003.19
2022-10-07T11:37:33.206Z,96002.14
2022-10-07T11:38:33.198Z,95999.92
2022-10-07T11:39:33.188Z,95998.16
2022-10-07T11:40:33.164Z,95994.55
2022-10-07T11:41:33.179Z,95994.64
2022-10-07T11:42:33.160Z,95993.69
2022-10-07T11:43:33.151Z,95994.02
2022-10-07T11:44:33.154Z,95990.52
2022-10-07T11:45:33.117Z,95996.06